This is the latest recevied weather packets stored in our database for station/object LZ1NAG-10. If no packets are shown the sender has not sent any weather packets the latest 1 day(s).
| Time | Temp. | Humidity | Pressure | Rain* | Wind** | Luminosity | Snow |
|---|---|---|---|---|---|---|---|
| 1778085220 | 21.67° C | 51% | 1017.6 hPa | - | - | - | - |
| 1778084320 | 21.67° C | 51% | 1017.6 hPa | - | - | - | - |
| 1778081619 | 21.67° C | 51% | 1017.8 hPa | - | - | - | - |
| 1778080719 | 22.22° C | 51% | 1017.7 hPa | - | - | - | - |
| 1778078018 | 24.44° C | 50% | 1017.7 hPa | - | - | - | - |
| 1778073517 | 27.78° C | 51% | 1017.8 hPa | - | - | - | - |
| 1778072617 | 33.89° C | 45% | 1018.2 hPa | - | - | - | - |
| 1778069016 | 35° C | 44% | 1018.6 hPa | - | - | - | - |
| 1778068116 | 33.33° C | 45% | 1019.1 hPa | - | - | - | - |
| 1778064513 | 33.89° C | 45% | 1019.4 hPa | - | - | - | - |
| 1778063613 | 34.44° C | 43% | 1019.4 hPa | - | - | - | - |
| 1778062713 | 32.78° C | 44% | 1019.6 hPa | - | - | - | - |
| 1778061813 | 32.78° C | 44% | 1020.1 hPa | - | - | - | - |
| 1778058212 | 31.11° C | 44% | 1020.3 hPa | - | - | - | - |
| 1778057312 | 30.56° C | 44% | 1020.6 hPa | - | - | - | - |
| 1778056412 | 30° C | 44% | 1020.2 hPa | - | - | - | - |
| 1778055512 | 30° C | 43% | 1020.5 hPa | - | - | - | - |
| 1778052811 | 28.89° C | 43% | 1020.5 hPa | - | - | - | - |
| 1778051911 | 28.89° C | 42% | 1020.5 hPa | - | - | - | - |
| 1778051011 | 28.33° C | 42% | 1020.9 hPa | - | - | - | - |
| 1778050111 | 27.78° C | 42% | 1020.9 hPa | - | - | - | - |
| 1778046509 | 26.11° C | 41% | 1020.9 hPa | - | - | - | - |
| 1778043808 | 12.22° C | 52% | 1021 hPa | - | - | - | - |
| 1778042908 | 10.56° C | 52% | 1020.9 hPa | - | - | - | - |
| 1778042008 | 9.44° C | 52% | 1021 hPa | - | - | - | - |
* Rain since midnight (hover to see other rain measurements)
** Current wind speed in m/s (hover to see current wind gust speed)